sensor_id;sensor_type;location;lat;lon;timestamp;temperature;humidity
43049;DHT22;28673;44.412;11.918;2023-05-07T00:02:00;16.80;99.90
43049;DHT22;28673;44.412;11.918;2023-05-07T00:09:55;16.80;99.90
43049;DHT22;28673;44.412;11.918;2023-05-07T00:15:05;16.70;99.90
43049;DHT22;28673;44.412;11.918;2023-05-07T00:17:33;16.70;99.90
43049;DHT22;28673;44.412;11.918;2023-05-07T00:20:18;16.70;99.90
43049;DHT22;28673;44.412;11.918;2023-05-07T00:25:28;16.60;99.90
43049;DHT22;28673;44.412;11.918;2023-05-07T00:27:54;16.60;99.90
43049;DHT22;28673;44.412;11.918;2023-05-07T00:30:20;16.60;99.90
43049;DHT22;28673;44.412;11.918;2023-05-07T00:33:05;16.60;99.90
43049;DHT22;28673;44.412;11.918;2023-05-07T00:35:31;16.60;99.90
43049;DHT22;28673;44.412;11.918;2023-05-07T00:37:57;16.50;99.90
43049;DHT22;28673;44.412;11.918;2023-05-07T00:41:00;16.50;99.90
43049;DHT22;28673;44.412;11.918;2023-05-07T00:44:03;16.50;99.90
43049;DHT22;28673;44.412;11.918;2023-05-07T00:46:30;16.40;99.90
43049;DHT22;28673;44.412;11.918;2023-05-07T00:49:15;16.40;99.90
43049;DHT22;28673;44.412;11.918;2023-05-07T00:51:42;16.40;99.90
43049;DHT22;28673;44.412;11.918;2023-05-07T00:54:08;16.40;99.90
43049;DHT22;28673;44.412;11.918;2023-05-07T00:56:34;16.30;99.90
43049;DHT22;28673;44.412;11.918;2023-05-07T00:59:19;16.30;99.90
43049;DHT22;28673;44.412;11.918;2023-05-07T01:01:45;16.30;99.90
43049;DHT22;28673;44.412;11.918;2023-05-07T01:04:10;16.30;99.90
43049;DHT22;28673;44.412;11.918;2023-05-07T01:09:25;16.20;99.90
43049;DHT22;28673;44.412;11.918;2023-05-07T01:11:52;16.20;99.90
43049;DHT22;28673;44.412;11.918;2023-05-07T01:14:37;16.10;99.90
43049;DHT22;28673;44.412;11.918;2023-05-07T01:17:22;16.10;99.90
43049;DHT22;28673;44.412;11.918;2023-05-07T01:19:48;16.10;99.90
43049;DHT22;28673;44.412;11.918;2023-05-07T01:22:16;16.00;99.90
43049;DHT22;28673;44.412;11.918;2023-05-07T01:24:49;16.00;99.90
43049;DHT22;28673;44.412;11.918;2023-05-07T01:27:16;16.00;99.90
43049;DHT22;28673;44.412;11.918;2023-05-07T01:29:43;15.90;99.90
43049;DHT22;28673;44.412;11.918;2023-05-07T01:32:09;15.90;99.90
43049;DHT22;28673;44.412;11.918;2023-05-07T01:34:36;15.90;99.90
43049;DHT22;28673;44.412;11.918;2023-05-07T01:37:03;15.80;99.90
43049;DHT22;28673;44.412;11.918;2023-05-07T01:39:29;15.80;99.90
43049;DHT22;28673;44.412;11.918;2023-05-07T01:41:56;15.80;99.90
43049;DHT22;28673;44.412;11.918;2023-05-07T01:44:42;15.80;99.90
43049;DHT22;28673;44.412;11.918;2023-05-07T01:50:12;15.70;99.90
43049;DHT22;28673;44.412;11.918;2023-05-07T01:52:38;15.70;99.90
43049;DHT22;28673;44.412;11.918;2023-05-07T01:55:05;15.70;99.90
43049;DHT22;28673;44.412;11.918;2023-05-07T01:57:32;15.60;99.90
43049;DHT22;28673;44.412;11.918;2023-05-07T01:59:58;15.60;99.90
43049;DHT22;28673;44.412;11.918;2023-05-07T02:02:23;15.60;99.90
43049;DHT22;28673;44.412;11.918;2023-05-07T02:05:45;15.50;99.90
43049;DHT22;28673;44.412;11.918;2023-05-07T02:08:28;15.50;99.90
43049;DHT22;28673;44.412;11.918;2023-05-07T02:10:54;15.50;99.90
43049;DHT22;28673;44.412;11.918;2023-05-07T02:13:20;15.40;99.90
43049;DHT22;28673;44.412;11.918;2023-05-07T02:16:06;15.40;99.90
43049;DHT22;28673;44.412;11.918;2023-05-07T02:21:36;15.40;99.90
43049;DHT22;28673;44.412;11.918;2023-05-07T02:24:02;15.30;99.90
43049;DHT22;28673;44.412;11.918;2023-05-07T02:26:27;15.30;99.90
43049;DHT22;28673;44.412;11.918;2023-05-07T02:29:12;15.30;99.90
43049;DHT22;28673;44.412;11.918;2023-05-07T02:31:39;15.20;99.90
43049;DHT22;28673;44.412;11.918;2023-05-07T02:34:23;15.20;99.90
43049;DHT22;28673;44.412;11.918;2023-05-07T02:37:08;15.20;99.90
43049;DHT22;28673;44.412;11.918;2023-05-07T02:39:53;15.20;99.90
43049;DHT22;28673;44.412;11.918;2023-05-07T02:42:19;15.20;99.90
43049;DHT22;28673;44.412;11.918;2023-05-07T02:44:45;15.10;99.90
43049;DHT22;28673;44.412;11.918;2023-05-07T02:47:11;15.10;99.90
43049;DHT22;28673;44.412;11.918;2023-05-07T02:49:40;15.10;99.90
43049;DHT22;28673;44.412;11.918;2023-05-07T02:52:07;15.00;99.90
43049;DHT22;28673;44.412;11.918;2023-05-07T02:57:17;15.00;99.90
43049;DHT22;28673;44.412;11.918;2023-05-07T02:59:43;15.00;99.90
43049;DHT22;28673;44.412;11.918;2023-05-07T03:02:10;15.00;99.90
43049;DHT22;28673;44.412;11.918;2023-05-07T03:04:36;14.90;99.90
43049;DHT22;28673;44.412;11.918;2023-05-07T03:07:02;15.00;99.90
43049;DHT22;28673;44.412;11.918;2023-05-07T03:09:28;14.90;99.90
43049;DHT22;28673;44.412;11.918;2023-05-07T03:12:13;14.90;99.90
43049;DHT22;28673;44.412;11.918;2023-05-07T03:14:39;14.90;99.90
43049;DHT22;28673;44.412;11.918;2023-05-07T03:17:04;14.80;99.90
43049;DHT22;28673;44.412;11.918;2023-05-07T03:19:48;14.80;99.90
43049;DHT22;28673;44.412;11.918;2023-05-07T03:22:15;14.80;99.90
43049;DHT22;28673;44.412;11.918;2023-05-07T03:24:40;14.80;99.90
43049;DHT22;28673;44.412;11.918;2023-05-07T03:29:52;14.70;99.90
43049;DHT22;28673;44.412;11.918;2023-05-07T03:32:19;14.70;99.90
43049;DHT22;28673;44.412;11.918;2023-05-07T03:37:48;14.60;99.90
43049;DHT22;28673;44.412;11.918;2023-05-07T03:40:15;14.60;99.90
43049;DHT22;28673;44.412;11.918;2023-05-07T03:42:45;14.60;99.90
43049;DHT22;28673;44.412;11.918;2023-05-07T03:45:13;14.50;99.90
43049;DHT22;28673;44.412;11.918;2023-05-07T03:47:43;14.50;99.90
43049;DHT22;28673;44.412;11.918;2023-05-07T03:50:11;14.50;99.90
43049;DHT22;28673;44.412;11.918;2023-05-07T03:52:37;14.50;99.90
43049;DHT22;28673;44.412;11.918;2023-05-07T03:55:05;14.50;99.90
43049;DHT22;28673;44.412;11.918;2023-05-07T03:57:33;14.50;99.90
43049;DHT22;28673;44.412;11.918;2023-05-07T04:00:38;14.50;99.90
43049;DHT22;28673;44.412;11.918;2023-05-07T04:03:17;14.50;99.90
43049;DHT22;28673;44.412;11.918;2023-05-07T04:05:43;14.40;99.90
43049;DHT22;28673;44.412;11.918;2023-05-07T04:08:09;14.40;99.90
43049;DHT22;28673;44.412;11.918;2023-05-07T04:10:58;14.40;99.90
43049;DHT22;28673;44.412;11.918;2023-05-07T04:13:27;14.40;99.90
43049;DHT22;28673;44.412;11.918;2023-05-07T04:15:55;14.40;99.90
43049;DHT22;28673;44.412;11.918;2023-05-07T04:18:39;14.40;99.90
43049;DHT22;28673;44.412;11.918;2023-05-07T04:21:24;14.40;99.90
43049;DHT22;28673;44.412;11.918;2023-05-07T04:24:10;14.40;99.90
43049;DHT22;28673;44.412;11.918;2023-05-07T04:26:36;14.40;99.90
43049;DHT22;28673;44.412;11.918;2023-05-07T04:29:02;14.40;99.90
43049;DHT22;28673;44.412;11.918;2023-05-07T04:31:32;14.50;99.90
43049;DHT22;28673;44.412;11.918;2023-05-07T04:34:35;14.50;99.90
43049;DHT22;28673;44.412;11.918;2023-05-07T04:37:02;14.50;99.90
43049;DHT22;28673;44.412;11.918;2023-05-07T04:39:28;14.50;99.90
43049;DHT22;28673;44.412;11.918;2023-05-07T04:41:54;14.50;99.90
43049;DHT22;28673;44.412;11.918;2023-05-07T04:47:26;14.60;99.90
43049;DHT22;28673;44.412;11.918;2023-05-07T04:49:52;14.60;99.90
43049;DHT22;28673;44.412;11.918;2023-05-07T04:55:58;14.70;99.90
43049;DHT22;28673;44.412;11.918;2023-05-07T04:58:31;14.70;99.90
43049;DHT22;28673;44.412;11.918;2023-05-07T05:03:43;14.80;99.90
43049;DHT22;28673;44.412;11.918;2023-05-07T05:06:27;14.80;99.90
43049;DHT22;28673;44.412;11.918;2023-05-07T05:09:13;14.80;99.90
43049;DHT22;28673;44.412;11.918;2023-05-07T05:11:41;14.90;99.90
43049;DHT22;28673;44.412;11.918;2023-05-07T05:17:10;15.00;99.90
43049;DHT22;28673;44.412;11.918;2023-05-07T05:20:14;15.10;99.90
43049;DHT22;28673;44.412;11.918;2023-05-07T05:22:44;15.20;99.90
43049;DHT22;28673;44.412;11.918;2023-05-07T05:25:12;15.20;99.90
43049;DHT22;28673;44.412;11.918;2023-05-07T05:27:38;15.20;99.90
43049;DHT22;28673;44.412;11.918;2023-05-07T05:30:05;15.30;99.90
43049;DHT22;28673;44.412;11.918;2023-05-07T05:32:32;15.40;99.90
43049;DHT22;28673;44.412;11.918;2023-05-07T05:34:59;15.50;99.90
43049;DHT22;28673;44.412;11.918;2023-05-07T05:37:44;15.50;99.90
43049;DHT22;28673;44.412;11.918;2023-05-07T05:40:28;15.60;99.90
43049;DHT22;28673;44.412;11.918;2023-05-07T05:45:40;15.70;99.90
43049;DHT22;28673;44.412;11.918;2023-05-07T05:50:51;15.80;99.90
43049;DHT22;28673;44.412;11.918;2023-05-07T05:53:18;16.00;99.90
43049;DHT22;28673;44.412;11.918;2023-05-07T05:55:44;16.00;99.90
43049;DHT22;28673;44.412;11.918;2023-05-07T05:58:30;16.10;99.90
43049;DHT22;28673;44.412;11.918;2023-05-07T06:01:00;16.20;99.90
43049;DHT22;28673;44.412;11.918;2023-05-07T06:03:31;16.30;99.90
43049;DHT22;28673;44.412;11.918;2023-05-07T06:06:16;16.40;99.90
43049;DHT22;28673;44.412;11.918;2023-05-07T06:08:43;16.50;99.90
43049;DHT22;28673;44.412;11.918;2023-05-07T06:11:11;16.60;99.90
43049;DHT22;28673;44.412;11.918;2023-05-07T06:13:56;16.70;99.90
43049;DHT22;28673;44.412;11.918;2023-05-07T06:16:24;16.80;99.90
43049;DHT22;28673;44.412;11.918;2023-05-07T06:18:51;17.00;99.90
43049;DHT22;28673;44.412;11.918;2023-05-07T06:21:36;17.10;99.90
43049;DHT22;28673;44.412;11.918;2023-05-07T06:24:21;17.10;99.90
43049;DHT22;28673;44.412;11.918;2023-05-07T06:27:07;17.30;99.90
43049;DHT22;28673;44.412;11.918;2023-05-07T06:29:52;17.40;99.90
43049;DHT22;28673;44.412;11.918;2023-05-07T06:32:18;17.50;99.90
43049;DHT22;28673;44.412;11.918;2023-05-07T06:34:45;17.60;99.90
43049;DHT22;28673;44.412;11.918;2023-05-07T06:37:12;17.70;99.90
43049;DHT22;28673;44.412;11.918;2023-05-07T06:40:08;17.80;99.90
43049;DHT22;28673;44.412;11.918;2023-05-07T06:42:55;18.00;99.90
43049;DHT22;28673;44.412;11.918;2023-05-07T06:45:39;18.20;99.90
43049;DHT22;28673;44.412;11.918;2023-05-07T06:48:08;18.40;99.90
43049;DHT22;28673;44.412;11.918;2023-05-07T06:50:43;18.60;99.90
43049;DHT22;28673;44.412;11.918;2023-05-07T06:53:29;18.80;99.90
43049;DHT22;28673;44.412;11.918;2023-05-07T06:55:57;18.90;99.90
43049;DHT22;28673;44.412;11.918;2023-05-07T06:58:23;19.10;99.90
43049;DHT22;28673;44.412;11.918;2023-05-07T07:01:08;19.30;99.90
43049;DHT22;28673;44.412;11.918;2023-05-07T07:03:54;19.50;99.90
43049;DHT22;28673;44.412;11.918;2023-05-07T07:06:22;19.60;99.90
43049;DHT22;28673;44.412;11.918;2023-05-07T07:08:48;19.80;99.90
43049;DHT22;28673;44.412;11.918;2023-05-07T07:14:02;20.10;99.90
43049;DHT22;28673;44.412;11.918;2023-05-07T07:16:31;20.30;99.90
43049;DHT22;28673;44.412;11.918;2023-05-07T07:18:57;20.40;99.90
43049;DHT22;28673;44.412;11.918;2023-05-07T07:21:23;20.70;99.90
43049;DHT22;28673;44.412;11.918;2023-05-07T07:26:57;21.10;99.90
43049;DHT22;28673;44.412;11.918;2023-05-07T07:29:25;21.30;99.90
43049;DHT22;28673;44.412;11.918;2023-05-07T07:31:52;21.60;99.90
43049;DHT22;28673;44.412;11.918;2023-05-07T07:34:37;21.90;99.90
43049;DHT22;28673;44.412;11.918;2023-05-07T07:39:48;22.20;99.90
43049;DHT22;28673;44.412;11.918;2023-05-07T07:42:14;22.30;99.90
43049;DHT22;28673;44.412;11.918;2023-05-07T07:44:40;22.40;99.90
43049;DHT22;28673;44.412;11.918;2023-05-07T07:47:08;22.60;99.90
43049;DHT22;28673;44.412;11.918;2023-05-07T07:55:08;23.20;99.90
43049;DHT22;28673;44.412;11.918;2023-05-07T07:57:35;23.40;99.90
43049;DHT22;28673;44.412;11.918;2023-05-07T08:00:02;23.60;99.90
43049;DHT22;28673;44.412;11.918;2023-05-07T08:02:31;23.80;99.90
43049;DHT22;28673;44.412;11.918;2023-05-07T08:04:57;24.10;99.90
43049;DHT22;28673;44.412;11.918;2023-05-07T08:07:42;24.20;99.90
43049;DHT22;28673;44.412;11.918;2023-05-07T08:10:09;24.40;99.90
43049;DHT22;28673;44.412;11.918;2023-05-07T08:12:35;24.60;99.90
43049;DHT22;28673;44.412;11.918;2023-05-07T08:15:02;24.80;99.90
43049;DHT22;28673;44.412;11.918;2023-05-07T08:17:46;25.00;99.90
43049;DHT22;28673;44.412;11.918;2023-05-07T08:20:31;25.30;99.90
43049;DHT22;28673;44.412;11.918;2023-05-07T08:22:57;25.50;99.90
43049;DHT22;28673;44.412;11.918;2023-05-07T08:25:24;25.70;99.90
43049;DHT22;28673;44.412;11.918;2023-05-07T08:27:50;26.00;99.60
43049;DHT22;28673;44.412;11.918;2023-05-07T08:30:35;26.10;99.40
43049;DHT22;28673;44.412;11.918;2023-05-07T08:35:45;26.50;99.20
43049;DHT22;28673;44.412;11.918;2023-05-07T08:38:13;26.80;98.80
43049;DHT22;28673;44.412;11.918;2023-05-07T08:40:41;27.00;98.60
43049;DHT22;28673;44.412;11.918;2023-05-07T08:43:13;27.20;98.50
43049;DHT22;28673;44.412;11.918;2023-05-07T08:45:58;27.40;97.80
43049;DHT22;28673;44.412;11.918;2023-05-07T08:48:29;27.60;97.70
43049;DHT22;28673;44.412;11.918;2023-05-07T08:51:05;27.80;97.60
43049;DHT22;28673;44.412;11.918;2023-05-07T08:53:32;28.00;97.10
43049;DHT22;28673;44.412;11.918;2023-05-07T08:56:02;28.20;96.90
43049;DHT22;28673;44.412;11.918;2023-05-07T08:58:29;28.40;96.00
43049;DHT22;28673;44.412;11.918;2023-05-07T09:00:56;28.50;95.70
43049;DHT22;28673;44.412;11.918;2023-05-07T09:03:23;28.70;95.80
43049;DHT22;28673;44.412;11.918;2023-05-07T09:06:07;28.80;95.80
43049;DHT22;28673;44.412;11.918;2023-05-07T09:08:36;29.00;95.40
43049;DHT22;28673;44.412;11.918;2023-05-07T09:11:07;29.10;95.10
43049;DHT22;28673;44.412;11.918;2023-05-07T09:13:33;29.30;95.00
43049;DHT22;28673;44.412;11.918;2023-05-07T09:16:21;29.50;94.50
43049;DHT22;28673;44.412;11.918;2023-05-07T09:18:51;29.60;93.80
43049;DHT22;28673;44.412;11.918;2023-05-07T09:21:26;29.70;94.30
43049;DHT22;28673;44.412;11.918;2023-05-07T09:27:19;30.00;92.80
43049;DHT22;28673;44.412;11.918;2023-05-07T09:30:06;30.20;93.30
43049;DHT22;28673;44.412;11.918;2023-05-07T09:32:35;30.40;92.90
43049;DHT22;28673;44.412;11.918;2023-05-07T09:35:16;30.40;92.30
43049;DHT22;28673;44.412;11.918;2023-05-07T09:37:44;30.60;92.40
43049;DHT22;28673;44.412;11.918;2023-05-07T09:40:31;30.70;91.70
43049;DHT22;28673;44.412;11.918;2023-05-07T09:43:13;30.80;91.40
43049;DHT22;28673;44.412;11.918;2023-05-07T09:45:49;30.90;90.90
43049;DHT22;28673;44.412;11.918;2023-05-07T09:48:40;31.00;91.20
43049;DHT22;28673;44.412;11.918;2023-05-07T09:53:38;31.40;90.40
43049;DHT22;28673;44.412;11.918;2023-05-07T09:56:05;31.40;89.70
43049;DHT22;28673;44.412;11.918;2023-05-07T09:58:32;31.40;89.50
43049;DHT22;28673;44.412;11.918;2023-05-07T10:01:00;31.60;89.30
43049;DHT22;28673;44.412;11.918;2023-05-07T10:03:46;31.90;89.00
43049;DHT22;28673;44.412;11.918;2023-05-07T10:06:13;32.20;88.60
43049;DHT22;28673;44.412;11.918;2023-05-07T10:08:59;32.50;89.20
43049;DHT22;28673;44.412;11.918;2023-05-07T10:11:28;32.80;86.80
43049;DHT22;28673;44.412;11.918;2023-05-07T10:13:55;33.00;86.30
43049;DHT22;28673;44.412;11.918;2023-05-07T10:16:21;33.10;85.20
43049;DHT22;28673;44.412;11.918;2023-05-07T10:21:44;33.30;84.40
43049;DHT22;28673;44.412;11.918;2023-05-07T10:24:19;33.50;83.00
43049;DHT22;28673;44.412;11.918;2023-05-07T10:30:05;33.90;80.80
43049;DHT22;28673;44.412;11.918;2023-05-07T10:32:37;34.10;81.90
43049;DHT22;28673;44.412;11.918;2023-05-07T10:35:14;34.40;81.50
43049;DHT22;28673;44.412;11.918;2023-05-07T10:40:31;34.40;79.00
43049;DHT22;28673;44.412;11.918;2023-05-07T10:43:05;34.10;79.40
43049;DHT22;28673;44.412;11.918;2023-05-07T10:45:37;34.10;78.40
43049;DHT22;28673;44.412;11.918;2023-05-07T10:51:28;33.50;78.40
43049;DHT22;28673;44.412;11.918;2023-05-07T10:54:23;33.50;79.00
43049;DHT22;28673;44.412;11.918;2023-05-07T10:57:32;33.70;78.90
43049;DHT22;28673;44.412;11.918;2023-05-07T11:03:26;34.10;78.40
43049;DHT22;28673;44.412;11.918;2023-05-07T11:06:15;34.20;75.80
43049;DHT22;28673;44.412;11.918;2023-05-07T11:08:58;34.40;76.10
43049;DHT22;28673;44.412;11.918;2023-05-07T11:15:37;34.80;76.30
43049;DHT22;28673;44.412;11.918;2023-05-07T11:18:10;35.10;74.70
43049;DHT22;28673;44.412;11.918;2023-05-07T11:20:58;35.30;73.60
43049;DHT22;28673;44.412;11.918;2023-05-07T11:29:17;35.20;74.40
43049;DHT22;28673;44.412;11.918;2023-05-07T11:31:43;35.10;75.60
43049;DHT22;28673;44.412;11.918;2023-05-07T11:34:33;35.00;75.60
43049;DHT22;28673;44.412;11.918;2023-05-07T11:37:19;35.20;76.20
43049;DHT22;28673;44.412;11.918;2023-05-07T11:40:06;35.50;75.20
43049;DHT22;28673;44.412;11.918;2023-05-07T11:42:35;35.60;73.10
43049;DHT22;28673;44.412;11.918;2023-05-07T11:45:24;35.70;74.70
43049;DHT22;28673;44.412;11.918;2023-05-07T11:47:52;35.90;74.00
43049;DHT22;28673;44.412;11.918;2023-05-07T11:50:18;36.20;73.70
43049;DHT22;28673;44.412;11.918;2023-05-07T11:52:54;36.20;73.20
43049;DHT22;28673;44.412;11.918;2023-05-07T11:55:20;36.40;73.30
43049;DHT22;28673;44.412;11.918;2023-05-07T11:58:05;36.40;72.80
43049;DHT22;28673;44.412;11.918;2023-05-07T12:00:31;36.30;72.60
43049;DHT22;28673;44.412;11.918;2023-05-07T12:03:05;36.40;72.60
43049;DHT22;28673;44.412;11.918;2023-05-07T12:05:32;36.60;72.80
43049;DHT22;28673;44.412;11.918;2023-05-07T12:07:59;36.50;72.30
43049;DHT22;28673;44.412;11.918;2023-05-07T12:10:25;36.50;72.40
43049;DHT22;28673;44.412;11.918;2023-05-07T12:12:51;36.60;72.60
43049;DHT22;28673;44.412;11.918;2023-05-07T12:15:17;36.70;72.20
43049;DHT22;28673;44.412;11.918;2023-05-07T12:17:48;36.90;71.70
43049;DHT22;28673;44.412;11.918;2023-05-07T12:20:35;37.20;71.10
43049;DHT22;28673;44.412;11.918;2023-05-07T12:23:20;37.40;69.80
43049;DHT22;28673;44.412;11.918;2023-05-07T12:26:06;37.50;69.50
43049;DHT22;28673;44.412;11.918;2023-05-07T12:28:51;37.50;69.40
43049;DHT22;28673;44.412;11.918;2023-05-07T12:31:17;37.40;69.30
43049;DHT22;28673;44.412;11.918;2023-05-07T12:34:02;37.30;69.60
43049;DHT22;28673;44.412;11.918;2023-05-07T12:36:37;37.00;68.80
43049;DHT22;28673;44.412;11.918;2023-05-07T12:39:07;36.80;68.50
43049;DHT22;28673;44.412;11.918;2023-05-07T12:41:57;36.70;70.80
43049;DHT22;28673;44.412;11.918;2023-05-07T12:44:45;36.50;70.40
43049;DHT22;28673;44.412;11.918;2023-05-07T12:47:29;36.40;71.80
43049;DHT22;28673;44.412;11.918;2023-05-07T12:49:55;36.40;71.40
43049;DHT22;28673;44.412;11.918;2023-05-07T12:52:21;36.30;71.50
43049;DHT22;28673;44.412;11.918;2023-05-07T12:54:48;36.20;72.10
43049;DHT22;28673;44.412;11.918;2023-05-07T12:57:51;36.20;72.00
43049;DHT22;28673;44.412;11.918;2023-05-07T13:00:33;36.20;72.80
43049;DHT22;28673;44.412;11.918;2023-05-07T13:02:58;36.20;71.90
43049;DHT22;28673;44.412;11.918;2023-05-07T13:08:09;36.00;72.70
43049;DHT22;28673;44.412;11.918;2023-05-07T13:10:35;35.80;73.00
43049;DHT22;28673;44.412;11.918;2023-05-07T13:15:46;35.80;72.50
43049;DHT22;28673;44.412;11.918;2023-05-07T13:18:13;35.60;72.40
43049;DHT22;28673;44.412;11.918;2023-05-07T13:20:39;35.60;73.20
43049;DHT22;28673;44.412;11.918;2023-05-07T13:23:05;35.70;72.60
43049;DHT22;28673;44.412;11.918;2023-05-07T13:25:31;35.30;72.30
43049;DHT22;28673;44.412;11.918;2023-05-07T13:27:57;35.10;72.70
43049;DHT22;28673;44.412;11.918;2023-05-07T13:30:23;35.00;72.90
43049;DHT22;28673;44.412;11.918;2023-05-07T13:35:34;34.50;73.40
43049;DHT22;28673;44.412;11.918;2023-05-07T13:38:00;34.40;73.80
43049;DHT22;28673;44.412;11.918;2023-05-07T13:43:29;33.30;75.00
43049;DHT22;28673;44.412;11.918;2023-05-07T13:46:14;32.80;75.70
43049;DHT22;28673;44.412;11.918;2023-05-07T13:48:40;32.10;76.60
43049;DHT22;28673;44.412;11.918;2023-05-07T13:51:06;31.60;77.30
43049;DHT22;28673;44.412;11.918;2023-05-07T13:53:51;31.20;78.50
43049;DHT22;28673;44.412;11.918;2023-05-07T13:56:18;30.70;79.60
43049;DHT22;28673;44.412;11.918;2023-05-07T13:58:47;30.40;79.60
43049;DHT22;28673;44.412;11.918;2023-05-07T14:01:13;30.30;80.00
43049;DHT22;28673;44.412;11.918;2023-05-07T14:03:57;30.30;80.70
43049;DHT22;28673;44.412;11.918;2023-05-07T14:06:26;30.40;80.50
43049;DHT22;28673;44.412;11.918;2023-05-07T14:12:13;30.10;79.80
43049;DHT22;28673;44.412;11.918;2023-05-07T14:14:39;30.00;80.30
43049;DHT22;28673;44.412;11.918;2023-05-07T14:17:05;30.10;80.60
43049;DHT22;28673;44.412;11.918;2023-05-07T14:19:31;30.20;81.40
43049;DHT22;28673;44.412;11.918;2023-05-07T14:22:16;30.30;81.10
43049;DHT22;28673;44.412;11.918;2023-05-07T14:24:42;30.40;80.40
43049;DHT22;28673;44.412;11.918;2023-05-07T14:27:08;30.30;79.70
43049;DHT22;28673;44.412;11.918;2023-05-07T14:29:59;30.40;80.30
43049;DHT22;28673;44.412;11.918;2023-05-07T14:35:29;30.30;78.80
43049;DHT22;28673;44.412;11.918;2023-05-07T14:38:13;30.20;79.00
43049;DHT22;28673;44.412;11.918;2023-05-07T14:40:39;30.00;80.30
43049;DHT22;28673;44.412;11.918;2023-05-07T14:43:05;30.00;79.70
43049;DHT22;28673;44.412;11.918;2023-05-07T14:45:30;30.10;80.20
43049;DHT22;28673;44.412;11.918;2023-05-07T14:48:18;30.20;80.40
43049;DHT22;28673;44.412;11.918;2023-05-07T14:50:46;30.50;79.50
43049;DHT22;28673;44.412;11.918;2023-05-07T14:53:12;30.30;79.30
43049;DHT22;28673;44.412;11.918;2023-05-07T14:55:59;30.20;79.00
43049;DHT22;28673;44.412;11.918;2023-05-07T14:58:26;30.20;79.50
43049;DHT22;28673;44.412;11.918;2023-05-07T15:01:10;30.10;79.20
43049;DHT22;28673;44.412;11.918;2023-05-07T15:03:55;30.10;79.00
43049;DHT22;28673;44.412;11.918;2023-05-07T15:06:39;30.00;79.30
43049;DHT22;28673;44.412;11.918;2023-05-07T15:09:05;29.90;79.50
43049;DHT22;28673;44.412;11.918;2023-05-07T15:11:49;29.90;79.90
43049;DHT22;28673;44.412;11.918;2023-05-07T15:14:34;29.90;80.00
43049;DHT22;28673;44.412;11.918;2023-05-07T15:17:00;29.90;80.10
43049;DHT22;28673;44.412;11.918;2023-05-07T15:19:45;30.00;79.80
43049;DHT22;28673;44.412;11.918;2023-05-07T15:22:29;29.90;80.10
43049;DHT22;28673;44.412;11.918;2023-05-07T15:25:14;29.90;79.50
43049;DHT22;28673;44.412;11.918;2023-05-07T15:27:58;29.90;79.90
43049;DHT22;28673;44.412;11.918;2023-05-07T15:30:24;30.00;80.00
43049;DHT22;28673;44.412;11.918;2023-05-07T15:33:09;30.10;79.60
43049;DHT22;28673;44.412;11.918;2023-05-07T15:35:35;30.10;79.00
43049;DHT22;28673;44.412;11.918;2023-05-07T15:38:01;29.90;78.40
43049;DHT22;28673;44.412;11.918;2023-05-07T15:40:28;29.70;79.30
43049;DHT22;28673;44.412;11.918;2023-05-07T15:45:41;29.40;80.10
43049;DHT22;28673;44.412;11.918;2023-05-07T15:50:53;29.20;80.90
43049;DHT22;28673;44.412;11.918;2023-05-07T15:56:22;29.10;80.30
43049;DHT22;28673;44.412;11.918;2023-05-07T15:58:49;29.00;80.70
43049;DHT22;28673;44.412;11.918;2023-05-07T16:01:15;28.90;80.90
43049;DHT22;28673;44.412;11.918;2023-05-07T16:03:59;28.70;80.80
43049;DHT22;28673;44.412;11.918;2023-05-07T16:09:12;28.20;80.70
43049;DHT22;28673;44.412;11.918;2023-05-07T16:11:39;28.00;80.40
43049;DHT22;28673;44.412;11.918;2023-05-07T16:16:49;27.40;80.10
43049;DHT22;28673;44.412;11.918;2023-05-07T16:19:34;27.20;80.90
43049;DHT22;28673;44.412;11.918;2023-05-07T16:22:00;27.00;81.00
43049;DHT22;28673;44.412;11.918;2023-05-07T16:24:26;26.80;81.40
43049;DHT22;28673;44.412;11.918;2023-05-07T16:26:52;26.70;82.10
43049;DHT22;28673;44.412;11.918;2023-05-07T16:29:18;26.50;82.70
43049;DHT22;28673;44.412;11.918;2023-05-07T16:32:02;26.40;83.60
43049;DHT22;28673;44.412;11.918;2023-05-07T16:34:28;26.30;83.60
43049;DHT22;28673;44.412;11.918;2023-05-07T16:36:54;26.20;84.10
43049;DHT22;28673;44.412;11.918;2023-05-07T16:39:20;25.90;84.60
43049;DHT22;28673;44.412;11.918;2023-05-07T16:41:47;25.90;85.30
43049;DHT22;28673;44.412;11.918;2023-05-07T16:44:16;25.80;85.70
43049;DHT22;28673;44.412;11.918;2023-05-07T16:46:42;25.60;86.20
43049;DHT22;28673;44.412;11.918;2023-05-07T16:49:08;25.50;86.90
43049;DHT22;28673;44.412;11.918;2023-05-07T16:51:53;25.40;87.40
43049;DHT22;28673;44.412;11.918;2023-05-07T16:54:18;25.30;88.20
43049;DHT22;28673;44.412;11.918;2023-05-07T16:56:44;25.20;88.60
43049;DHT22;28673;44.412;11.918;2023-05-07T16:59:10;25.10;89.00
43049;DHT22;28673;44.412;11.918;2023-05-07T17:01:36;25.10;89.40
43049;DHT22;28673;44.412;11.918;2023-05-07T17:06:46;25.00;90.10
43049;DHT22;28673;44.412;11.918;2023-05-07T17:09:12;24.80;90.40
43049;DHT22;28673;44.412;11.918;2023-05-07T17:12:15;24.70;90.70
43049;DHT22;28673;44.412;11.918;2023-05-07T17:14:59;24.60;91.20
43049;DHT22;28673;44.412;11.918;2023-05-07T17:17:25;24.50;91.10
43049;DHT22;28673;44.412;11.918;2023-05-07T17:19:51;24.40;91.30
43049;DHT22;28673;44.412;11.918;2023-05-07T17:22:17;24.40;91.60
43049;DHT22;28673;44.412;11.918;2023-05-07T17:27:36;24.20;91.80
43049;DHT22;28673;44.412;11.918;2023-05-07T17:30:02;24.20;92.10
43049;DHT22;28673;44.412;11.918;2023-05-07T17:32:28;24.00;92.30
43049;DHT22;28673;44.412;11.918;2023-05-07T17:34:55;24.00;92.60
43049;DHT22;28673;44.412;11.918;2023-05-07T17:37:39;23.90;92.80
43049;DHT22;28673;44.412;11.918;2023-05-07T17:40:06;23.80;93.10
43049;DHT22;28673;44.412;11.918;2023-05-07T17:45:36;23.50;93.40
43049;DHT22;28673;44.412;11.918;2023-05-07T17:48:02;23.40;93.50
43049;DHT22;28673;44.412;11.918;2023-05-07T17:50:46;23.40;93.60
43049;DHT22;28673;44.412;11.918;2023-05-07T17:53:15;23.30;93.70
43049;DHT22;28673;44.412;11.918;2023-05-07T17:56:00;23.20;93.70
43049;DHT22;28673;44.412;11.918;2023-05-07T17:58:32;23.20;93.80
43049;DHT22;28673;44.412;11.918;2023-05-07T18:00:58;23.10;94.30
43049;DHT22;28673;44.412;11.918;2023-05-07T18:03:25;23.10;94.10
43049;DHT22;28673;44.412;11.918;2023-05-07T18:05:52;23.00;94.20